Time;durP1;ratioP1;P1;durP2;ratioP2;P2;SDS_P1;SDS_P2;PMS_P1;PMS_P2;Temp;Humidity;BMP_temperature;BMP_pressure;BME280_temperature;BME280_humidity;BME280_pressure;Samples;Min_cycle;Max_cycle;Signal;HPM_P1;HPM_P2
2022/12/12 00:01:35;;;;;;;12.80;6.05;;;;;;;2.60;89.48;98119.84;4954960;28;20033;-75
2022/12/12 00:04:00;;;;;;;27.23;12.27;;;;;;;2.60;89.37;98106.69;4993166;28;20049;-79
2022/12/12 00:06:25;;;;;;;26.33;11.88;;;;;;;2.53;89.71;98106.25;4990672;28;20112;-75
2022/12/12 00:08:51;;;;;;;24.73;10.30;;;;;;;2.65;90.12;98132.72;4977257;28;20056;-74
2022/12/12 00:11:15;;;;;;;22.05;9.50;;;;;;;2.76;89.80;98101.31;4978297;28;20034;-80
2022/12/12 00:13:40;;;;;;;19.27;11.20;;;;;;;2.82;89.81;98108.81;4978243;28;20107;-74
2022/12/12 00:16:06;;;;;;;16.70;8.60;;;;;;;2.86;89.45;98112.94;4955504;28;20042;-78
2022/12/12 00:18:31;;;;;;;22.15;11.63;;;;;;;2.90;89.30;98124.94;4982742;28;20106;-76
2022/12/12 00:20:56;;;;;;;17.05;8.07;;;;;;;2.88;89.13;98117.16;4965213;28;20033;-78
2022/12/12 00:23:22;;;;;;;22.42;11.98;;;;;;;2.78;89.13;98113.44;4979735;28;20049;-80
2022/12/12 00:25:56;;;;;;;14.18;6.63;;;;;;;2.90;89.23;98112.63;4996071;28;20091;-75
2022/12/12 00:28:21;;;;;;;18.88;9.85;;;;;;;2.74;89.21;98116.34;4983896;28;20431;-73
2022/12/12 00:30:46;;;;;;;19.80;10.35;;;;;;;2.64;89.40;98123.97;4973383;28;20377;-80
2022/12/12 00:33:10;;;;;;;15.13;7.53;;;;;;;2.73;89.51;98117.28;4980308;28;20045;-71
2022/12/12 00:35:35;;;;;;;16.70;9.05;;;;;;;2.71;89.76;98129.72;4974167;28;20111;-72
2022/12/12 00:38:00;;;;;;;24.55;11.95;;;;;;;2.71;89.78;98114.75;4977848;28;20220;-72
2022/12/12 00:40:24;;;;;;;26.02;11.77;;;;;;;2.70;89.89;98126.25;4977310;28;20396;-71
2022/12/12 00:42:49;;;;;;;14.95;8.20;;;;;;;2.70;90.04;98120.13;4941149;28;20042;-74
2022/12/12 00:45:14;;;;;;;18.02;9.52;;;;;;;2.74;89.81;98118.97;4979382;28;20404;-71
2022/12/12 00:47:39;;;;;;;16.67;8.55;;;;;;;2.74;89.81;98109.28;4948613;28;20404;-68
2022/12/12 00:50:04;;;;;;;21.55;10.40;;;;;;;2.70;89.50;98105.19;4976768;28;20064;-72
2022/12/12 00:52:28;;;;;;;18.73;11.10;;;;;;;2.66;89.97;98111.59;4971546;28;20038;-74
2022/12/12 00:54:53;;;;;;;22.17;11.15;;;;;;;2.50;89.42;98106.44;4974066;28;20052;-73
2022/12/12 00:57:18;;;;;;;16.35;9.30;;;;;;;2.55;89.72;98103.53;4972139;28;20041;-72
2022/12/12 00:59:42;;;;;;;21.45;11.13;;;;;;;2.51;89.92;98108.13;4986606;28;20156;-73
2022/12/12 01:02:07;;;;;;;17.60;9.13;;;;;;;2.50;90.32;98100.31;4994874;28;20041;-69
2022/12/12 01:04:32;;;;;;;21.17;11.52;;;;;;;2.47;90.74;98100.53;4959599;28;20053;-72
2022/12/12 01:06:56;;;;;;;23.13;12.02;;;;;;;2.46;90.48;98109.38;4972747;28;20080;-73
2022/12/12 01:09:21;;;;;;;17.70;10.85;;;;;;;2.48;90.78;98113.56;4940079;28;20462;-72
2022/12/12 01:11:46;;;;;;;19.63;9.57;;;;;;;2.53;90.70;98124.66;4972502;28;20038;-73
2022/12/12 01:14:10;;;;;;;20.73;11.10;;;;;;;2.46;90.98;98112.84;4951058;28;20211;-70
2022/12/12 01:16:35;;;;;;;14.18;7.40;;;;;;;2.63;90.76;98110.91;4993424;28;20522;-73
2022/12/12 01:19:00;;;;;;;14.18;7.75;;;;;;;2.67;90.89;98112.44;4976072;28;20049;-72
2022/12/12 01:21:25;;;;;;;18.63;10.05;;;;;;;2.74;90.48;98124.22;4976774;28;20120;-71
2022/12/12 01:23:49;;;;;;;19.10;9.43;;;;;;;2.59;90.37;98126.06;4992805;28;20135;-71
2022/12/12 01:26:17;;;;;;;22.70;11.18;;;;;;;2.60;90.45;98119.84;4994434;28;20041;-71
2022/12/12 01:28:42;;;;;;;20.60;9.35;;;;;;;2.52;90.53;98125.59;4991130;28;20076;-74
2022/12/12 01:31:07;;;;;;;12.85;7.18;;;;;;;2.53;90.67;98124.66;4996533;28;20104;-72
2022/12/12 01:33:32;;;;;;;19.35;9.10;;;;;;;2.60;90.63;98121.66;4996263;28;20056;-73
2022/12/12 01:35:56;;;;;;;11.32;7.00;;;;;;;2.60;90.87;98119.03;4996197;28;20132;-73
2022/12/12 01:38:23;;;;;;;19.50;9.95;;;;;;;2.59;90.77;98114.72;4964663;28;20104;-74
2022/12/12 01:40:48;;;;;;;15.02;7.20;;;;;;;2.58;90.81;98127.00;4990940;28;20034;-73
2022/12/12 01:43:15;;;;;;;14.45;8.57;;;;;;;2.52;90.99;98120.34;4972742;28;20051;-72
2022/12/12 01:45:58;;;;;;;15.18;7.90;;;;;;;2.64;91.29;98121.34;4987286;28;20045;-78
2022/12/12 01:48:33;;;;;;;15.63;8.07;;;;;;;2.72;91.26;98126.97;4968202;28;20058;-74
2022/12/12 01:51:02;;;;;;;16.13;7.95;;;;;;;2.68;91.18;98127.28;5007138;28;20056;-73
2022/12/12 01:53:28;;;;;;;14.98;8.80;;;;;;;2.74;90.94;98118.97;4964370;28;20047;-77
2022/12/12 01:55:54;;;;;;;12.95;8.10;;;;;;;2.68;90.77;98127.28;4977738;28;20534;-78
2022/12/12 01:58:19;;;;;;;15.88;8.30;;;;;;;2.64;90.54;98113.47;4965637;28;20564;-77
2022/12/12 02:00:44;;;;;;;12.60;7.43;;;;;;;2.71;90.70;98114.75;4964409;28;20539;-77
2022/12/12 02:03:09;;;;;;;13.23;6.25;;;;;;;2.66;90.80;98130.00;4978855;28;20050;-76
2022/12/12 02:05:40;;;;;;;19.20;7.30;;;;;;;2.84;90.94;98123.53;4978346;28;20100;-80
2022/12/12 02:08:07;;;;;;;9.18;5.03;;;;;;;2.69;90.58;98126.34;4982226;28;20111;-77
2022/12/12 02:10:32;;;;;;;15.98;9.65;;;;;;;2.67;90.94;98107.16;4964677;28;20041;-76
2022/12/12 02:13:02;;;;;;;14.52;8.15;;;;;;;2.51;91.05;98113.38;4997884;28;20049;-76
2022/12/12 02:15:33;;;;;;;15.55;7.35;;;;;;;2.55;91.11;98114.91;4979780;28;20049;-76
2022/12/12 02:18:11;;;;;;;15.40;7.75;;;;;;;2.68;91.66;98119.38;5006479;28;20041;-81
2022/12/12 02:21:05;;;;;;;11.02;6.45;;;;;;;2.74;91.50;98119.81;5000583;28;20053;-74
2022/12/12 02:23:51;;;;;;;14.20;8.35;;;;;;;2.75;91.52;98115.41;4980614;28;20132;-73
2022/12/12 02:26:31;;;;;;;11.70;5.40;;;;;;;2.84;91.46;98122.69;4996497;28;20496;-76
2022/12/12 02:29:18;;;;;;;12.63;7.07;;;;;;;2.88;91.43;98117.16;4960853;28;20447;-73
2022/12/12 02:31:52;;;;;;;10.88;6.00;;;;;;;2.83;91.26;98123.63;4973968;28;20116;-73
2022/12/12 02:34:28;;;;;;;13.48;6.75;;;;;;;2.82;90.92;98127.25;4958678;28;20039;-74
2022/12/12 02:37:03;;;;;;;8.95;4.72;;;;;;;2.96;90.81;98121.91;4987280;28;20392;-73
2022/12/12 02:39:50;;;;;;;14.65;8.65;;;;;;;2.69;90.73;98127.19;4996800;28;20072;-74
2022/12/12 02:42:57;;;;;;;10.95;6.95;;;;;;;2.68;90.91;98130.75;4963906;28;20427;-76
2022/12/12 02:45:36;;;;;;;14.73;7.32;;;;;;;2.73;90.90;98127.81;4957049;28;20088;-73
2022/12/12 02:48:15;;;;;;;6.43;4.38;;;;;;;2.81;91.25;98130.81;4940456;28;20145;-75
2022/12/12 02:50:45;;;;;;;9.88;5.25;;;;;;;2.84;91.34;98125.31;4956279;28;20047;-73
2022/12/12 02:53:10;;;;;;;11.82;6.70;;;;;;;2.76;91.28;98125.00;4942877;28;20046;-72
2022/12/12 02:55:34;;;;;;;13.88;7.13;;;;;;;2.80;91.37;98137.00;4939730;28;20054;-74
2022/12/12 02:58:00;;;;;;;9.57;5.68;;;;;;;2.80;91.45;98129.97;4960719;28;20049;-74
2022/12/12 03:00:27;;;;;;;14.95;7.10;;;;;;;2.71;91.42;98132.34;4949403;28;20038;-75
2022/12/12 03:07:45;;;;;;;17.20;7.57;;;;;;;2.78;91.44;98146.78;4956551;28;20050;-74
2022/12/12 03:08:46;;;;;;;10.38;6.40;;;;;;;2.76;91.38;98125.00;4955539;28;20050;-73
2022/12/12 03:11:14;;;;;;;11.32;6.43;;;;;;;2.62;91.59;98130.28;4956140;28;20050;-74
2022/12/12 03:13:57;;;;;;;15.68;7.03;;;;;;;2.81;91.82;98133.44;4956430;28;20054;-74
2022/12/12 03:16:35;;;;;;;5.55;3.58;;;;;;;2.73;91.83;98126.03;4939344;28;20537;-74
2022/12/12 03:19:23;;;;;;;13.20;7.18;;;;;;;2.78;91.92;98134.47;4955461;28;20050;-72
2022/12/12 03:21:53;;;;;;;6.97;4.40;;;;;;;2.81;92.22;98144.81;4973127;28;20037;-73
2022/12/12 03:24:37;;;;;;;9.98;5.07;;;;;;;2.87;91.93;98146.19;4978588;28;20045;-70
2022/12/12 03:27:17;;;;;;;13.10;5.88;;;;;;;2.95;91.75;98141.28;4985479;28;20372;-68
2022/12/12 03:29:48;;;;;;;13.73;5.57;;;;;;;2.90;91.19;98141.59;4996568;28;20103;-68
2022/12/12 03:32:21;;;;;;;8.70;4.90;;;;;;;3.06;91.32;98154.59;4978920;28;20124;-73
2022/12/12 03:34:51;;;;;;;7.90;4.60;;;;;;;2.96;90.77;98145.59;4978721;28;20044;-74
2022/12/12 03:37:23;;;;;;;10.65;6.25;;;;;;;2.94;90.97;98139.59;4994849;28;20063;-69
2022/12/12 03:40:11;;;;;;;8.60;4.72;;;;;;;2.93;91.08;98140.56;4978143;28;20037;-71
2022/12/12 03:43:02;;;;;;;10.40;5.07;;;;;;;3.12;91.02;98130.50;4966456;28;20124;-70
2022/12/12 03:45:34;;;;;;;7.35;5.63;;;;;;;2.90;90.62;98131.06;4979188;28;20050;-71
2022/12/12 03:48:20;;;;;;;3.58;3.13;;;;;;;2.96;90.85;98129.81;5000989;28;20115;-69
2022/12/12 03:50:51;;;;;;;9.80;6.03;;;;;;;2.97;90.60;98135.91;4995720;28;20487;-72
2022/12/12 03:53:41;;;;;;;11.55;6.57;;;;;;;2.93;90.87;98135.28;4978145;28;20034;-71
2022/12/12 03:56:05;;;;;;;9.48;6.32;;;;;;;2.74;91.17;98134.75;4978477;28;20077;-71
2022/12/12 03:58:56;;;;;;;10.55;7.57;;;;;;;2.87;91.37;98133.03;4996830;28;20574;-72
2022/12/12 04:01:27;;;;;;;7.07;4.47;;;;;;;2.94;91.46;98129.06;4947043;28;20056;-71
2022/12/12 04:03:59;;;;;;;9.27;5.25;;;;;;;2.96;91.09;98132.44;4978389;28;20139;-72
2022/12/12 04:06:33;;;;;;;11.25;5.53;;;;;;;2.99;91.19;98149.81;4974893;28;20050;-71
2022/12/12 04:14:56;;;;;;;12.82;5.28;;;;;;;2.96;90.88;98134.22;4975453;28;20053;-71
2022/12/12 04:17:29;;;;;;;10.98;4.68;;;;;;;2.91;91.10;98122.22;4941716;28;20096;-71
2022/12/12 04:28:30;;;;;;;14.32;5.82;;;;;;;2.76;91.34;98149.50;4975384;28;20076;-70
2022/12/12 04:31:02;;;;;;;8.93;5.90;;;;;;;2.55;91.63;98156.13;4941880;28;20100;-69
2022/12/12 04:33:38;;;;;;;11.70;6.72;;;;;;;2.59;91.93;98162.06;4957972;28;20049;-70
2022/12/12 04:36:07;;;;;;;9.65;5.78;;;;;;;2.73;92.25;98143.59;4957768;28;20037;-70
2022/12/12 04:38:33;;;;;;;9.15;5.85;;;;;;;2.65;92.04;98154.63;4975169;28;20092;-70
2022/12/12 04:41:00;;;;;;;9.88;6.57;;;;;;;2.61;91.98;98161.00;4957952;28;20108;-70
2022/12/12 04:43:30;;;;;;;7.35;4.43;;;;;;;2.80;92.43;98169.44;4975222;28;20061;-70
2022/12/12 04:45:58;;;;;;;8.07;5.15;;;;;;;2.78;92.25;98163.44;4957877;28;20045;-69
2022/12/12 04:48:30;;;;;;;6.72;4.80;;;;;;;2.95;91.90;98161.47;4974064;28;20447;-70
2022/12/12 04:50:58;;;;;;;7.65;4.05;;;;;;;3.02;92.03;98150.47;4973893;28;20045;-70
2022/12/12 04:53:31;;;;;;;8.75;5.45;;;;;;;2.91;92.00;98150.34;4975242;28;20754;-71
2022/12/12 04:55:58;;;;;;;11.23;6.75;;;;;;;2.85;91.35;98148.06;4974037;28;20103;-72
2022/12/12 04:58:23;;;;;;;9.65;5.55;;;;;;;2.88;91.36;98156.63;4977360;28;20886;-71
2022/12/12 05:00:58;;;;;;;10.80;5.43;;;;;;;2.84;91.08;98141.97;4944142;28;20120;-73
2022/12/12 05:03:28;;;;;;;8.55;5.60;;;;;;;2.96;91.14;98139.50;4957929;28;20482;-71
2022/12/12 05:06:01;;;;;;;8.02;5.18;;;;;;;3.06;91.04;98140.56;4976926;28;20415;-70
2022/12/12 05:08:34;;;;;;;8.52;4.78;;;;;;;2.90;90.61;98146.00;4977276;28;20404;-72
2022/12/12 05:11:02;;;;;;;8.35;4.38;;;;;;;3.11;90.57;98162.19;4995348;28;20045;-73
2022/12/12 05:13:30;;;;;;;10.80;6.55;;;;;;;3.01;90.01;98147.94;4977144;28;20140;-73
2022/12/12 05:15:57;;;;;;;6.22;4.15;;;;;;;2.91;90.16;98147.69;4994120;28;20067;-73
2022/12/12 05:18:22;;;;;;;6.15;4.68;;;;;;;3.02;90.41;98142.59;4977260;28;20514;-73
2022/12/12 05:20:47;;;;;;;10.20;4.70;;;;;;;3.02;90.11;98166.28;4993977;28;20507;-73
2022/12/12 05:23:12;;;;;;;11.18;7.22;;;;;;;2.90;90.16;98169.69;4978111;28;20403;-73
2022/12/12 05:25:36;;;;;;;7.68;4.78;;;;;;;2.91;89.91;98155.59;4997633;28;20399;-71
2022/12/12 05:28:01;;;;;;;7.28;5.05;;;;;;;2.97;90.30;98154.34;4964779;28;20038;-73
2022/12/12 05:30:26;;;;;;;9.75;5.18;;;;;;;2.76;90.41;98152.16;4981822;28;20048;-73
2022/12/12 05:32:50;;;;;;;10.55;5.95;;;;;;;2.69;90.76;98152.66;4981370;28;20595;-73
2022/12/12 05:35:16;;;;;;;7.32;5.40;;;;;;;2.91;90.91;98164.34;4998658;28;20045;-71
2022/12/12 05:37:41;;;;;;;7.78;4.63;;;;;;;3.02;90.80;98158.38;4983784;28;20049;-71
2022/12/12 05:40:07;;;;;;;7.07;4.57;;;;;;;3.05;90.46;98155.53;4999962;28;20519;-72
2022/12/12 05:42:32;;;;;;;7.53;5.45;;;;;;;2.91;90.16;98148.53;4980757;28;20404;-72
2022/12/12 05:44:57;;;;;;;6.72;5.25;;;;;;;2.83;89.89;98147.31;4968106;28;20084;-72
2022/12/12 05:47:21;;;;;;;10.93;4.47;;;;;;;2.96;90.17;98160.53;4978989;28;20045;-72
2022/12/12 05:49:46;;;;;;;7.90;5.43;;;;;;;2.97;90.06;98162.25;4990230;28;20038;-73
2022/12/12 05:52:11;;;;;;;4.15;2.95;;;;;;;2.95;90.08;98157.06;4956734;28;20049;-73
2022/12/12 05:54:36;;;;;;;6.72;4.53;;;;;;;3.02;90.44;98157.53;4963907;28;20041;-72
2022/12/12 05:57:01;;;;;;;8.43;6.00;;;;;;;2.91;90.22;98152.97;4980233;28;20053;-74
2022/12/12 05:59:26;;;;;;;4.80;3.45;;;;;;;2.76;90.43;98169.72;4952118;28;20505;-73
2022/12/12 06:01:51;;;;;;;8.27;5.75;;;;;;;2.81;90.80;98168.50;4980298;28;20053;-73
2022/12/12 06:04:15;;;;;;;7.25;5.03;;;;;;;2.73;90.80;98175.16;4997771;28;20519;-72
2022/12/12 06:06:40;;;;;;;7.32;5.43;;;;;;;2.68;90.86;98158.84;4979951;28;20080;-73
2022/12/12 06:09:04;;;;;;;8.10;6.03;;;;;;;2.65;90.68;98166.91;4996613;28;20049;-71
2022/12/12 06:11:29;;;;;;;11.57;5.72;;;;;;;2.79;91.45;98180.06;4979597;28;20415;-73
2022/12/12 06:13:54;;;;;;;8.25;5.38;;;;;;;2.73;91.25;98176.00;4979725;28;20435;-72
2022/12/12 06:16:18;;;;;;;4.63;3.50;;;;;;;2.71;91.53;98182.34;4997438;28;20519;-72
2022/12/12 06:18:48;;;;;;;9.55;6.35;;;;;;;2.73;91.75;98175.16;4972871;28;20041;-72
2022/12/12 06:21:13;;;;;;;9.27;5.32;;;;;;;2.90;91.67;98167.06;4976777;28;20046;-74
2022/12/12 06:23:39;;;;;;;8.70;6.05;;;;;;;2.80;91.35;98166.81;4996944;28;20064;-74
2022/12/12 06:26:05;;;;;;;8.77;5.82;;;;;;;2.90;91.45;98172.31;4979672;28;20492;-73
2022/12/12 06:28:30;;;;;;;8.35;5.13;;;;;;;2.89;91.30;98168.00;4979740;28;20064;-73
2022/12/12 06:30:55;;;;;;;9.57;6.40;;;;;;;2.91;91.02;98166.13;4963297;28;20049;-72
2022/12/12 06:33:19;;;;;;;4.60;3.35;;;;;;;3.11;91.08;98163.03;4997248;28;20519;-69
2022/12/12 06:35:44;;;;;;;6.63;4.40;;;;;;;2.94;90.53;98168.53;4978938;28;20127;-71
2022/12/12 06:38:09;;;;;;;6.97;4.90;;;;;;;2.90;90.48;98162.66;4967229;28;20733;-70
2022/12/12 06:40:33;;;;;;;7.03;4.80;;;;;;;2.95;90.80;98169.38;4981913;28;20033;-71
2022/12/12 06:42:58;;;;;;;7.22;4.35;;;;;;;2.92;90.60;98179.19;4997227;28;20439;-72
2022/12/12 06:45:23;;;;;;;8.40;4.85;;;;;;;2.85;90.84;98174.41;4996867;28;20145;-72
2022/12/12 06:47:49;;;;;;;7.65;4.03;;;;;;;3.03;90.93;98183.78;4962969;28;20041;-71
2022/12/12 06:50:14;;;;;;;4.70;2.85;;;;;;;3.06;90.61;98186.19;4952737;28;20133;-72
2022/12/12 06:52:39;;;;;;;7.47;4.65;;;;;;;2.96;90.67;98174.56;4990969;28;20132;-71
2022/12/12 06:55:04;;;;;;;8.93;4.55;;;;;;;3.01;90.66;98179.53;4967892;28;20415;-73
2022/12/12 06:57:28;;;;;;;7.22;4.00;;;;;;;2.89;90.56;98163.59;4996738;28;20084;-73
2022/12/12 06:59:53;;;;;;;7.03;4.82;;;;;;;2.91;90.71;98172.22;4997020;28;20057;-73
2022/12/12 07:02:18;;;;;;;8.02;5.28;;;;;;;3.02;91.13;98186.50;4946787;28;20848;-73
2022/12/12 07:04:42;;;;;;;8.23;4.70;;;;;;;3.06;90.81;98191.44;4995348;28;20132;-72
2022/12/12 07:07:07;;;;;;;9.68;5.20;;;;;;;3.01;90.43;98197.97;4978652;28;20064;-73
2022/12/12 07:09:32;;;;;;;6.88;4.38;;;;;;;3.04;90.93;98197.78;4996426;28;20539;-71
2022/12/12 07:11:56;;;;;;;7.20;5.18;;;;;;;3.11;90.21;98202.53;4996570;28;20049;-71
2022/12/12 07:14:21;;;;;;;6.25;4.20;;;;;;;3.07;90.49;98173.88;4962494;28;20080;-72
2022/12/12 07:16:46;;;;;;;9.07;6.22;;;;;;;3.03;90.53;98188.19;4970665;28;20049;-69
2022/12/12 07:19:10;;;;;;;10.25;5.88;;;;;;;3.11;90.32;98186.75;4960270;28;20139;-71
2022/12/12 07:21:35;;;;;;;6.95;4.78;;;;;;;3.10;90.58;98194.72;4996055;28;20041;-69
2022/12/12 07:24:00;;;;;;;9.15;5.40;;;;;;;3.12;90.40;98204.22;4996640;28;20045;-72
2022/12/12 07:26:24;;;;;;;24.10;7.57;;;;;;;3.09;90.30;98190.41;4995870;28;20045;-71
2022/12/12 07:28:50;;;;;;;12.55;7.03;;;;;;;3.06;90.28;98188.81;4999573;28;20068;-70
2022/12/12 07:31:18;;;;;;;11.05;6.57;;;;;;;3.18;90.17;98197.72;4962586;28;20132;-70
2022/12/12 07:33:44;;;;;;;7.93;5.03;;;;;;;3.26;89.98;98196.28;4957243;28;20038;-72
2022/12/12 07:36:09;;;;;;;11.98;6.10;;;;;;;3.25;89.92;98194.59;4977097;28;20038;-72
2022/12/12 07:38:35;;;;;;;12.15;6.85;;;;;;;3.14;89.67;98194.44;4994731;28;20049;-71
2022/12/12 07:41:07;;;;;;;11.27;6.40;;;;;;;3.16;89.76;98195.16;4994694;28;20041;-71
2022/12/12 07:43:36;;;;;;;11.75;6.32;;;;;;;3.17;89.81;98181.06;4995843;28;20056;-71
2022/12/12 07:46:01;;;;;;;14.25;7.53;;;;;;;3.05;89.67;98181.03;4977982;28;20049;-70
2022/12/12 07:48:27;;;;;;;7.68;5.10;;;;;;;3.22;90.15;98183.41;4996091;28;20128;-70
2022/12/12 07:50:52;;;;;;;11.00;5.25;;;;;;;3.10;90.13;98192.94;4981658;28;20129;-71
2022/12/12 07:53:17;;;;;;;9.13;6.22;;;;;;;3.03;90.20;98196.94;4995801;28;20164;-70
2022/12/12 07:55:41;;;;;;;11.02;6.40;;;;;;;3.10;90.54;98192.94;4945575;28;20083;-71
2022/12/12 07:58:06;;;;;;;7.28;4.68;;;;;;;3.19;90.37;98189.72;4977750;28;20052;-71
2022/12/12 08:00:30;;;;;;;11.73;5.05;;;;;;;3.26;90.25;98188.41;4962669;28;20041;-71
2022/12/12 08:02:55;;;;;;;8.20;4.38;;;;;;;3.24;89.88;98187.63;4997296;28;20503;-70
2022/12/12 08:05:20;;;;;;;7.82;5.18;;;;;;;3.21;90.11;98201.00;4996358;28;20053;-71
2022/12/12 08:07:45;;;;;;;8.77;6.07;;;;;;;3.25;90.00;98183.22;4977821;28;20163;-72
2022/12/12 08:10:10;;;;;;;13.65;7.55;;;;;;;3.17;89.61;98181.06;4995972;28;20045;-71
2022/12/12 08:12:35;;;;;;;10.80;7.25;;;;;;;3.09;89.80;98186.00;4974632;28;20103;-73
2022/12/12 08:14:59;;;;;;;11.07;6.80;;;;;;;3.07;89.97;98193.13;4959701;28;20136;-70
2022/12/12 08:17:24;;;;;;;11.65;6.70;;;;;;;3.20;90.41;98183.50;4978104;28;20041;-70
2022/12/12 08:19:50;;;;;;;16.00;9.18;;;;;;;3.19;90.24;98194.97;4994041;28;20141;-70
2022/12/12 08:22:15;;;;;;;10.27;5.63;;;;;;;3.08;90.20;98196.63;4961465;28;20048;-71
2022/12/12 08:24:39;;;;;;;11.63;8.05;;;;;;;3.02;90.39;98192.59;4994237;28;20038;-70
2022/12/12 08:27:04;;;;;;;15.45;9.00;;;;;;;3.08;90.37;98191.34;4995393;28;20119;-70
2022/12/12 08:29:29;;;;;;;17.05;9.60;;;;;;;3.07;90.79;98202.81;4995750;28;20045;-69
2022/12/12 08:31:54;;;;;;;11.05;7.25;;;;;;;3.11;91.07;98199.06;4995323;28;20068;-71
2022/12/12 08:34:18;;;;;;;12.25;6.90;;;;;;;3.25;90.86;98193.75;4995403;28;20093;-70
2022/12/12 08:36:44;;;;;;;16.33;8.85;;;;;;;3.24;90.90;98203.44;4993847;28;20511;-71
2022/12/12 08:39:14;;;;;;;10.50;7.75;;;;;;;3.14;90.73;98207.63;4961373;28;20094;-72
2022/12/12 08:41:41;;;;;;;12.27;7.72;;;;;;;3.18;91.16;98208.25;4977431;28;20041;-70
2022/12/12 08:44:07;;;;;;;11.90;7.30;;;;;;;3.13;90.78;98210.34;4993942;28;20133;-71
2022/12/12 08:46:32;;;;;;;9.50;5.18;;;;;;;3.27;91.15;98208.50;4961390;28;20064;-74
2022/12/12 08:48:56;;;;;;;12.57;7.85;;;;;;;3.04;90.64;98211.78;4961700;28;20041;-73
2022/12/12 08:51:21;;;;;;;11.90;6.32;;;;;;;3.07;91.09;98208.94;4958852;28;20052;-73
2022/12/12 08:53:47;;;;;;;11.00;7.10;;;;;;;3.11;91.00;98199.91;4970302;28;20041;-73
2022/12/12 08:56:12;;;;;;;9.25;5.80;;;;;;;3.29;91.08;98216.28;4978516;28;20144;-74
2022/12/12 08:58:37;;;;;;;11.73;7.38;;;;;;;3.06;90.76;98207.25;4998221;28;20051;-72
2022/12/12 09:01:02;;;;;;;13.13;6.82;;;;;;;3.14;90.95;98207.63;4983648;28;20034;-74
2022/12/12 09:03:27;;;;;;;11.05;6.75;;;;;;;3.04;91.24;98196.00;4979298;28;20044;-73
2022/12/12 09:05:51;;;;;;;12.88;7.20;;;;;;;3.14;91.23;98201.50;4975013;28;20045;-75
2022/12/12 09:08:16;;;;;;;18.25;8.02;;;;;;;3.17;91.21;98217.94;4978888;28;20049;-75
2022/12/12 09:10:41;;;;;;;12.13;5.75;;;;;;;3.27;91.06;98213.75;4973505;28;20463;-73
2022/12/12 09:13:07;;;;;;;12.75;7.30;;;;;;;3.34;90.63;98219.50;4966497;28;20124;-71
2022/12/12 09:15:33;;;;;;;18.50;10.05;;;;;;;3.21;90.11;98218.59;4983007;28;20145;-73
2022/12/12 09:17:57;;;;;;;12.13;7.95;;;;;;;3.02;90.52;98216.28;4968116;28;20053;-73
2022/12/12 09:20:22;;;;;;;13.50;5.93;;;;;;;3.24;90.66;98221.88;4978437;28;20026;-72
2022/12/12 09:22:47;;;;;;;9.10;5.97;;;;;;;3.44;90.30;98215.31;4973440;28;20503;-71
2022/12/12 09:25:11;;;;;;;14.70;8.85;;;;;;;3.35;89.86;98220.34;4998229;28;20048;-70
2022/12/12 09:27:36;;;;;;;11.02;6.18;;;;;;;3.35;89.70;98215.91;4990108;28;20389;-69
2022/12/12 09:30:02;;;;;;;7.20;4.78;;;;;;;3.33;89.62;98217.78;4972021;28;20467;-70
2022/12/12 09:32:29;;;;;;;14.77;9.75;;;;;;;3.25;89.63;98214.81;4973010;28;20049;-71
2022/12/12 09:34:53;;;;;;;11.27;6.03;;;;;;;3.30;89.83;98215.34;4956911;28;20034;-70
2022/12/12 09:37:18;;;;;;;16.55;9.63;;;;;;;3.21;89.81;98219.44;4964968;28;20034;-71
2022/12/12 09:39:43;;;;;;;9.32;6.20;;;;;;;3.24;90.02;98213.13;4990521;28;20034;-71
2022/12/12 09:42:23;;;;;;;16.23;7.75;;;;;;;3.34;90.07;98214.22;4980869;28;20044;-70
2022/12/12 09:44:49;;;;;;;7.15;4.57;;;;;;;3.27;89.88;98200.59;4997029;28;20536;-71
2022/12/12 09:47:22;;;;;;;21.95;12.50;;;;;;;3.19;89.85;98216.06;4960816;28;20791;-69
2022/12/12 09:49:51;;;;;;;15.50;9.90;;;;;;;3.23;90.25;98207.03;4964072;28;20408;-71
2022/12/12 09:52:27;;;;;;;25.65;10.75;;;;;;;3.34;90.13;98208.97;4967685;28;20052;-70
2022/12/12 09:54:52;;;;;;;8.10;5.72;;;;;;;3.35;89.95;98194.00;4985003;28;20061;-70
2022/12/12 09:57:48;;;;;;;12.23;8.00;;;;;;;3.40;89.77;98200.63;4997999;28;20494;-70
2022/12/12 10:00:14;;;;;;;18.40;10.75;;;;;;;3.27;89.36;98205.03;4978502;28;20190;-71
2022/12/12 10:02:57;;;;;;;15.80;10.40;;;;;;;3.21;89.61;98208.91;4963816;28;20144;-72
2022/12/12 10:05:31;;;;;;;10.25;7.13;;;;;;;3.42;89.68;98205.81;4980468;28;20037;-70
2022/12/12 10:08:23;;;;;;;19.13;9.88;;;;;;;3.43;89.60;98207.50;4979897;28;20064;-69
2022/12/12 10:10:52;;;;;;;18.45;10.88;;;;;;;3.35;89.52;98209.81;4979678;28;20124;-72
2022/12/12 10:13:24;;;;;;;23.45;15.05;;;;;;;3.17;89.47;98198.66;4963389;28;20029;-72
2022/12/12 10:15:55;;;;;;;19.65;9.75;;;;;;;3.27;89.97;98208.50;4979981;28;20053;-72
2022/12/12 10:18:29;;;;;;;18.30;10.50;;;;;;;3.29;89.72;98206.59;5003874;28;20045;-74
2022/12/12 10:20:58;;;;;;;17.73;11.77;;;;;;;3.16;89.71;98215.44;5003924;28;20072;-73
2022/12/12 10:23:38;;;;;;;21.48;12.48;;;;;;;3.21;90.05;98197.53;4998302;28;20072;-73
2022/12/12 10:26:14;;;;;;;13.23;7.22;;;;;;;3.27;90.49;98197.94;4980681;28;20050;-73
2022/12/12 10:28:38;;;;;;;20.75;13.15;;;;;;;3.19;90.50;98194.13;4958739;28;20051;-72
2022/12/12 10:31:15;;;;;;;19.45;12.57;;;;;;;3.12;90.26;98200.75;4981255;28;20045;-73
2022/12/12 10:34:00;;;;;;;22.35;11.25;;;;;;;3.26;90.65;98195.44;4997251;28;20132;-69
2022/12/12 10:36:42;;;;;;;23.25;13.68;;;;;;;3.22;90.69;98205.31;4959537;28;20124;-70
2022/12/12 10:39:44;;;;;;;33.35;15.32;;;;;;;3.16;90.83;98182.00;4966520;28;20091;-71
2022/12/12 10:42:22;;;;;;;19.05;11.98;;;;;;;3.18;90.87;98193.28;4979268;28;20046;-70
2022/12/12 10:45:09;;;;;;;22.08;13.27;;;;;;;3.12;90.93;98196.34;4995938;28;20099;-70
2022/12/12 10:47:34;;;;;;;25.55;15.52;;;;;;;3.03;91.20;98204.81;4976234;28;20037;-69
2022/12/12 10:50:22;;;;;;;21.67;13.73;;;;;;;3.05;91.47;98192.38;4968498;28;20137;-69
2022/12/12 10:52:47;;;;;;;24.48;12.63;;;;;;;3.15;91.65;98192.66;4994239;28;20041;-70
2022/12/12 10:55:22;;;;;;;26.10;14.30;;;;;;;3.24;91.40;98192.06;4995846;28;20124;-69
2022/12/12 10:57:46;;;;;;;19.00;12.10;;;;;;;3.29;91.35;98185.53;4978292;28;20508;-70
2022/12/12 11:00:24;;;;;;;24.55;12.63;;;;;;;3.30;90.92;98194.28;4979100;28;20470;-69
2022/12/12 11:02:49;;;;;;;31.25;13.77;;;;;;;3.26;90.61;98184.91;4979827;28;20048;-68
2022/12/12 11:05:24;;;;;;;22.67;13.68;;;;;;;3.21;90.79;98195.72;4979770;28;20049;-67
2022/12/12 11:08:16;;;;;;;25.00;13.82;;;;;;;3.27;90.88;98197.94;4974432;28;20064;-71
2022/12/12 11:10:41;;;;;;;26.70;14.00;;;;;;;3.19;90.57;98194.97;4986913;28;20099;-68
2022/12/12 11:13:09;;;;;;;15.10;7.70;;;;;;;3.33;90.33;98195.88;4980930;28;20040;-71
2022/12/12 11:15:44;;;;;;;22.88;12.57;;;;;;;3.29;90.22;98200.50;4996837;28;20095;-71
2022/12/12 11:18:15;;;;;;;21.95;12.63;;;;;;;3.16;90.16;98195.16;4963125;28;20068;-72
2022/12/12 11:20:49;;;;;;;17.67;9.75;;;;;;;3.21;90.39;98187.84;4961664;28;20049;-69
2022/12/12 11:23:22;;;;;;;22.98;13.70;;;;;;;3.16;90.60;98184.63;4948708;28;20038;-71
2022/12/12 11:25:55;;;;;;;19.17;10.48;;;;;;;3.20;90.58;98186.13;4996347;28;20051;-73
2022/12/12 11:28:23;;;;;;;24.67;14.25;;;;;;;3.15;90.53;98187.41;4996460;28;20044;-70
2022/12/12 11:30:51;;;;;;;26.23;13.90;;;;;;;3.07;90.56;98169.44;4978538;28;20033;-73
2022/12/12 11:33:20;;;;;;;27.58;13.43;;;;;;;3.09;90.66;98180.72;4995867;28;20049;-73
2022/12/12 11:35:45;;;;;;;26.65;16.10;;;;;;;3.10;91.06;98192.94;4962093;28;20471;-72
2022/12/12 11:38:28;;;;;;;33.05;14.23;;;;;;;3.26;90.79;98185.75;4946240;28;20045;-71
2022/12/12 11:41:03;;;;;;;20.83;9.70;;;;;;;3.31;90.46;98187.22;4966825;28;20534;-72
2022/12/12 11:43:35;;;;;;;30.27;11.50;;;;;;;3.24;89.89;98189.44;4978668;28;20052;-70
2022/12/12 11:46:12;;;;;;;21.73;12.77;;;;;;;3.11;89.95;98191.16;4977960;28;20045;-71
2022/12/12 11:48:43;;;;;;;21.60;12.30;;;;;;;3.09;90.03;98190.41;4978490;28;20045;-70
2022/12/12 11:51:09;;;;;;;19.25;11.00;;;;;;;3.07;90.23;98187.88;4961876;28;20037;-69
2022/12/12 11:53:44;;;;;;;25.63;14.88;;;;;;;3.16;90.43;98200.44;4997318;28;20122;-70
2022/12/12 11:56:16;;;;;;;24.73;13.77;;;;;;;3.12;89.93;98185.81;4997916;28;20048;-71
2022/12/12 11:58:58;;;;;;;23.52;13.10;;;;;;;3.10;89.93;98179.78;4978939;28;20152;-71
2022/12/12 12:01:46;;;;;;;16.80;9.27;;;;;;;3.28;89.75;98185.63;4979081;28;20057;-71